sensor_id;sensor_type;location;lat;lon;timestamp;temperature;humidity
31379;DHT22;61664;48.112;11.662;2022-08-23T00:01:50;18.30;52.60
31379;DHT22;61664;48.112;11.662;2022-08-23T00:04:25;18.20;52.60
31379;DHT22;61664;48.112;11.662;2022-08-23T00:07:01;18.20;52.90
31379;DHT22;61664;48.112;11.662;2022-08-23T00:09:29;18.20;52.70
31379;DHT22;61664;48.112;11.662;2022-08-23T00:12:25;18.20;52.80
31379;DHT22;61664;48.112;11.662;2022-08-23T00:14:54;18.20;53.20
31379;DHT22;61664;48.112;11.662;2022-08-23T00:17:23;18.10;53.10
31379;DHT22;61664;48.112;11.662;2022-08-23T00:19:59;18.10;53.20
31379;DHT22;61664;48.112;11.662;2022-08-23T00:22:26;18.00;53.30
31379;DHT22;61664;48.112;11.662;2022-08-23T00:24:53;18.00;53.50
31379;DHT22;61664;48.112;11.662;2022-08-23T00:27:20;18.00;53.50
31379;DHT22;61664;48.112;11.662;2022-08-23T00:29:49;18.00;53.60
31379;DHT22;61664;48.112;11.662;2022-08-23T00:32:24;17.90;53.80
31379;DHT22;61664;48.112;11.662;2022-08-23T00:34:54;17.90;54.30
31379;DHT22;61664;48.112;11.662;2022-08-23T00:37:22;17.90;53.90
31379;DHT22;61664;48.112;11.662;2022-08-23T00:39:49;17.90;54.10
31379;DHT22;61664;48.112;11.662;2022-08-23T00:42:29;17.90;54.20
31379;DHT22;61664;48.112;11.662;2022-08-23T00:45:26;17.90;54.50
31379;DHT22;61664;48.112;11.662;2022-08-23T00:48:16;17.80;54.20
31379;DHT22;61664;48.112;11.662;2022-08-23T00:50:56;17.70;54.00
31379;DHT22;61664;48.112;11.662;2022-08-23T00:53:43;17.70;54.70
31379;DHT22;61664;48.112;11.662;2022-08-23T00:56:16;17.60;54.60
31379;DHT22;61664;48.112;11.662;2022-08-23T00:58:45;17.60;54.60
31379;DHT22;61664;48.112;11.662;2022-08-23T01:01:13;17.50;54.60
31379;DHT22;61664;48.112;11.662;2022-08-23T01:03:49;17.50;54.90
31379;DHT22;61664;48.112;11.662;2022-08-23T01:07:44;17.50;55.10
31379;DHT22;61664;48.112;11.662;2022-08-23T01:09:53;17.40;55.60
31379;DHT22;61664;48.112;11.662;2022-08-23T01:12:36;17.40;55.00
31379;DHT22;61664;48.112;11.662;2022-08-23T01:15:15;17.40;55.70
31379;DHT22;61664;48.112;11.662;2022-08-23T01:17:54;17.30;55.10
31379;DHT22;61664;48.112;11.662;2022-08-23T01:20:34;17.30;55.50
31379;DHT22;61664;48.112;11.662;2022-08-23T01:26:10;17.20;56.60
31379;DHT22;61664;48.112;11.662;2022-08-23T01:28:44;17.20;55.70
31379;DHT22;61664;48.112;11.662;2022-08-23T01:31:13;17.20;55.90
31379;DHT22;61664;48.112;11.662;2022-08-23T01:33:42;17.20;56.00
31379;DHT22;61664;48.112;11.662;2022-08-23T01:36:14;17.30;56.10
31379;DHT22;61664;48.112;11.662;2022-08-23T01:38:42;17.20;56.00
31379;DHT22;61664;48.112;11.662;2022-08-23T01:41:09;17.30;56.10
31379;DHT22;61664;48.112;11.662;2022-08-23T01:43:36;17.20;56.10
31379;DHT22;61664;48.112;11.662;2022-08-23T01:46:09;17.20;56.10
31379;DHT22;61664;48.112;11.662;2022-08-23T01:48:38;17.20;56.60
31379;DHT22;61664;48.112;11.662;2022-08-23T01:51:06;17.20;56.30
31379;DHT22;61664;48.112;11.662;2022-08-23T01:53:33;17.10;56.30
31379;DHT22;61664;48.112;11.662;2022-08-23T01:56:00;17.10;56.30
31379;DHT22;61664;48.112;11.662;2022-08-23T01:58:29;17.10;56.40
31379;DHT22;61664;48.112;11.662;2022-08-23T02:00:58;17.10;56.60
31379;DHT22;61664;48.112;11.662;2022-08-23T02:03:25;17.10;55.90
31379;DHT22;61664;48.112;11.662;2022-08-23T02:05:56;17.10;56.20
31379;DHT22;61664;48.112;11.662;2022-08-23T02:08:24;17.00;56.40
31379;DHT22;61664;48.112;11.662;2022-08-23T02:11:15;17.00;56.60
31379;DHT22;61664;48.112;11.662;2022-08-23T02:13:45;17.00;57.20
31379;DHT22;61664;48.112;11.662;2022-08-23T02:16:19;17.00;56.80
31379;DHT22;61664;48.112;11.662;2022-08-23T02:18:55;17.00;56.90
31379;DHT22;61664;48.112;11.662;2022-08-23T02:21:24;16.90;56.80
31379;DHT22;61664;48.112;11.662;2022-08-23T02:23:51;16.90;56.90
31379;DHT22;61664;48.112;11.662;2022-08-23T02:26:18;16.90;57.00
31379;DHT22;61664;48.112;11.662;2022-08-23T02:28:56;16.90;57.10
31379;DHT22;61664;48.112;11.662;2022-08-23T02:31:23;16.80;57.10
31379;DHT22;61664;48.112;11.662;2022-08-23T02:33:52;16.80;57.30
31379;DHT22;61664;48.112;11.662;2022-08-23T02:36:21;16.80;57.40
31379;DHT22;61664;48.112;11.662;2022-08-23T02:38:48;16.70;57.50
31379;DHT22;61664;48.112;11.662;2022-08-23T02:41:15;16.70;57.70
31379;DHT22;61664;48.112;11.662;2022-08-23T02:43:43;16.70;57.70
31379;DHT22;61664;48.112;11.662;2022-08-23T02:46:11;16.60;57.70
31379;DHT22;61664;48.112;11.662;2022-08-23T02:48:38;16.60;57.90
31379;DHT22;61664;48.112;11.662;2022-08-23T02:51:07;16.60;57.90
31379;DHT22;61664;48.112;11.662;2022-08-23T02:53:35;16.50;58.10
31379;DHT22;61664;48.112;11.662;2022-08-23T02:56:02;16.50;58.00
31379;DHT22;61664;48.112;11.662;2022-08-23T02:58:30;16.50;58.10
31379;DHT22;61664;48.112;11.662;2022-08-23T03:00:57;16.40;58.10
31379;DHT22;61664;48.112;11.662;2022-08-23T03:03:25;16.40;58.20
31379;DHT22;61664;48.112;11.662;2022-08-23T03:05:52;16.40;58.20
31379;DHT22;61664;48.112;11.662;2022-08-23T03:08:22;16.40;58.30
31379;DHT22;61664;48.112;11.662;2022-08-23T03:10:51;16.30;58.40
31379;DHT22;61664;48.112;11.662;2022-08-23T03:13:19;16.30;58.30
31379;DHT22;61664;48.112;11.662;2022-08-23T03:15:46;16.30;58.40
31379;DHT22;61664;48.112;11.662;2022-08-23T03:18:13;16.30;58.40
31379;DHT22;61664;48.112;11.662;2022-08-23T03:20:40;16.20;58.40
31379;DHT22;61664;48.112;11.662;2022-08-23T03:23:09;16.20;58.40
31379;DHT22;61664;48.112;11.662;2022-08-23T03:25:37;16.20;58.50
31379;DHT22;61664;48.112;11.662;2022-08-23T03:28:05;16.10;58.50
31379;DHT22;61664;48.112;11.662;2022-08-23T03:30:32;16.10;58.60
31379;DHT22;61664;48.112;11.662;2022-08-23T03:33:00;16.10;58.60
31379;DHT22;61664;48.112;11.662;2022-08-23T03:35:28;16.10;58.70
31379;DHT22;61664;48.112;11.662;2022-08-23T03:37:55;16.00;58.80
31379;DHT22;61664;48.112;11.662;2022-08-23T03:40:23;16.00;58.90
31379;DHT22;61664;48.112;11.662;2022-08-23T03:42:50;16.00;59.00
31379;DHT22;61664;48.112;11.662;2022-08-23T03:45:18;15.90;59.10
31379;DHT22;61664;48.112;11.662;2022-08-23T03:47:45;15.90;59.30
31379;DHT22;61664;48.112;11.662;2022-08-23T03:50:13;15.90;59.40
31379;DHT22;61664;48.112;11.662;2022-08-23T03:52:40;15.90;59.50
31379;DHT22;61664;48.112;11.662;2022-08-23T03:55:07;15.80;59.60
31379;DHT22;61664;48.112;11.662;2022-08-23T03:57:34;15.80;59.60
31379;DHT22;61664;48.112;11.662;2022-08-23T04:00:02;15.80;59.70
31379;DHT22;61664;48.112;11.662;2022-08-23T04:02:31;15.80;59.80
31379;DHT22;61664;48.112;11.662;2022-08-23T04:04:58;15.80;59.90
31379;DHT22;61664;48.112;11.662;2022-08-23T04:07:25;15.80;59.90
31379;DHT22;61664;48.112;11.662;2022-08-23T04:09:53;15.80;60.00
31379;DHT22;61664;48.112;11.662;2022-08-23T04:12:21;15.80;60.10
31379;DHT22;61664;48.112;11.662;2022-08-23T04:14:48;15.80;60.20
31379;DHT22;61664;48.112;11.662;2022-08-23T04:17:15;15.80;60.20
31379;DHT22;61664;48.112;11.662;2022-08-23T04:19:43;15.70;60.30
31379;DHT22;61664;48.112;11.662;2022-08-23T04:22:12;15.80;60.40
31379;DHT22;61664;48.112;11.662;2022-08-23T04:24:40;15.80;60.60
31379;DHT22;61664;48.112;11.662;2022-08-23T04:27:08;15.80;60.60
31379;DHT22;61664;48.112;11.662;2022-08-23T04:29:35;15.80;60.60
31379;DHT22;61664;48.112;11.662;2022-08-23T04:32:07;15.80;60.70
31379;DHT22;61664;48.112;11.662;2022-08-23T04:34:37;15.80;60.70
31379;DHT22;61664;48.112;11.662;2022-08-23T04:37:16;15.80;60.60
31379;DHT22;61664;48.112;11.662;2022-08-23T04:39:44;15.80;60.60
31379;DHT22;61664;48.112;11.662;2022-08-23T04:42:29;15.80;60.60
31379;DHT22;61664;48.112;11.662;2022-08-23T04:44:56;15.80;60.60
31379;DHT22;61664;48.112;11.662;2022-08-23T04:47:23;15.80;60.70
31379;DHT22;61664;48.112;11.662;2022-08-23T04:49:50;15.80;60.70
31379;DHT22;61664;48.112;11.662;2022-08-23T04:52:17;15.80;60.80
31379;DHT22;61664;48.112;11.662;2022-08-23T04:54:45;15.80;60.90
31379;DHT22;61664;48.112;11.662;2022-08-23T04:57:12;15.80;60.90
31379;DHT22;61664;48.112;11.662;2022-08-23T04:59:41;15.70;60.90
31379;DHT22;61664;48.112;11.662;2022-08-23T05:02:08;15.80;61.00
31379;DHT22;61664;48.112;11.662;2022-08-23T05:04:35;15.70;61.00
31379;DHT22;61664;48.112;11.662;2022-08-23T05:07:02;15.70;61.10
31379;DHT22;61664;48.112;11.662;2022-08-23T05:09:29;15.80;61.40
31379;DHT22;61664;48.112;11.662;2022-08-23T05:11:56;15.80;61.40
31379;DHT22;61664;48.112;11.662;2022-08-23T05:14:23;15.80;61.40
31379;DHT22;61664;48.112;11.662;2022-08-23T05:16:50;15.80;61.50
31379;DHT22;61664;48.112;11.662;2022-08-23T05:19:17;15.90;61.60
31379;DHT22;61664;48.112;11.662;2022-08-23T05:21:44;15.90;61.60
31379;DHT22;61664;48.112;11.662;2022-08-23T05:24:11;16.00;61.70
31379;DHT22;61664;48.112;11.662;2022-08-23T05:26:39;16.00;61.70
31379;DHT22;61664;48.112;11.662;2022-08-23T05:29:06;16.00;61.60
31379;DHT22;61664;48.112;11.662;2022-08-23T05:31:33;16.10;61.80
31379;DHT22;61664;48.112;11.662;2022-08-23T05:34:00;16.10;61.90
31379;DHT22;61664;48.112;11.662;2022-08-23T05:36:27;16.20;61.90
31379;DHT22;61664;48.112;11.662;2022-08-23T05:38:54;16.20;61.90
31379;DHT22;61664;48.112;11.662;2022-08-23T05:41:21;16.30;61.90
31379;DHT22;61664;48.112;11.662;2022-08-23T05:43:58;16.40;62.00
31379;DHT22;61664;48.112;11.662;2022-08-23T05:46:28;16.40;62.00
31379;DHT22;61664;48.112;11.662;2022-08-23T05:48:55;16.50;61.90
31379;DHT22;61664;48.112;11.662;2022-08-23T05:51:28;16.60;61.80
31379;DHT22;61664;48.112;11.662;2022-08-23T05:53:58;16.60;61.60
31379;DHT22;61664;48.112;11.662;2022-08-23T05:56:31;16.70;61.50
31379;DHT22;61664;48.112;11.662;2022-08-23T05:59:04;16.80;60.90
31379;DHT22;61664;48.112;11.662;2022-08-23T06:01:39;16.90;61.30
31379;DHT22;61664;48.112;11.662;2022-08-23T06:04:08;16.90;61.30
31379;DHT22;61664;48.112;11.662;2022-08-23T06:06:39;17.00;61.20
31379;DHT22;61664;48.112;11.662;2022-08-23T06:09:13;17.00;61.20
31379;DHT22;61664;48.112;11.662;2022-08-23T06:11:43;17.10;61.20
31379;DHT22;61664;48.112;11.662;2022-08-23T06:14:12;17.20;61.20
31379;DHT22;61664;48.112;11.662;2022-08-23T06:16:43;17.30;61.10
31379;DHT22;61664;48.112;11.662;2022-08-23T06:19:13;17.40;61.10
31379;DHT22;61664;48.112;11.662;2022-08-23T06:21:42;17.50;61.10
31379;DHT22;61664;48.112;11.662;2022-08-23T06:24:10;17.60;61.00
31379;DHT22;61664;48.112;11.662;2022-08-23T06:26:41;17.70;60.90
31379;DHT22;61664;48.112;11.662;2022-08-23T06:29:13;17.80;60.80
31379;DHT22;61664;48.112;11.662;2022-08-23T06:31:45;17.90;60.80
31379;DHT22;61664;48.112;11.662;2022-08-23T06:37:04;18.10;60.70
31379;DHT22;61664;48.112;11.662;2022-08-23T06:39:37;18.20;60.60
31379;DHT22;61664;48.112;11.662;2022-08-23T06:42:07;18.40;60.70
31379;DHT22;61664;48.112;11.662;2022-08-23T06:44:57;18.40;60.60
31379;DHT22;61664;48.112;11.662;2022-08-23T06:47:24;18.60;60.80
31379;DHT22;61664;48.112;11.662;2022-08-23T06:49:51;18.60;60.80
31379;DHT22;61664;48.112;11.662;2022-08-23T06:52:24;18.70;60.80
31379;DHT22;61664;48.112;11.662;2022-08-23T06:54:53;18.80;60.70
31379;DHT22;61664;48.112;11.662;2022-08-23T06:57:20;18.90;60.80
31379;DHT22;61664;48.112;11.662;2022-08-23T06:59:48;19.00;60.80
31379;DHT22;61664;48.112;11.662;2022-08-23T07:02:15;19.10;60.90
31379;DHT22;61664;48.112;11.662;2022-08-23T07:04:42;19.30;60.70
31379;DHT22;61664;48.112;11.662;2022-08-23T07:07:10;19.40;60.60
31379;DHT22;61664;48.112;11.662;2022-08-23T07:09:39;19.50;60.20
31379;DHT22;61664;48.112;11.662;2022-08-23T07:12:06;19.60;59.90
31379;DHT22;61664;48.112;11.662;2022-08-23T07:14:33;19.70;59.80
31379;DHT22;61664;48.112;11.662;2022-08-23T07:17:02;19.80;59.50
31379;DHT22;61664;48.112;11.662;2022-08-23T07:19:32;20.00;59.20
31379;DHT22;61664;48.112;11.662;2022-08-23T07:22:01;20.00;58.80
31379;DHT22;61664;48.112;11.662;2022-08-23T07:24:30;20.20;58.90
31379;DHT22;61664;48.112;11.662;2022-08-23T07:27:02;20.30;58.70
31379;DHT22;61664;48.112;11.662;2022-08-23T07:29:37;20.40;58.10
31379;DHT22;61664;48.112;11.662;2022-08-23T07:32:05;20.60;58.00
31379;DHT22;61664;48.112;11.662;2022-08-23T07:34:33;20.70;57.60
31379;DHT22;61664;48.112;11.662;2022-08-23T07:37:01;20.80;57.60
31379;DHT22;61664;48.112;11.662;2022-08-23T07:39:36;20.90;57.70
31379;DHT22;61664;48.112;11.662;2022-08-23T07:42:06;21.10;57.20
31379;DHT22;61664;48.112;11.662;2022-08-23T07:44:50;21.20;57.20
31379;DHT22;61664;48.112;11.662;2022-08-23T07:47:19;21.40;56.60
31379;DHT22;61664;48.112;11.662;2022-08-23T07:49:46;21.60;56.60
31379;DHT22;61664;48.112;11.662;2022-08-23T07:52:13;21.70;56.60
31379;DHT22;61664;48.112;11.662;2022-08-23T07:54:41;21.90;56.40
31379;DHT22;61664;48.112;11.662;2022-08-23T07:57:13;22.10;56.00
31379;DHT22;61664;48.112;11.662;2022-08-23T07:59:40;22.30;55.60
31379;DHT22;61664;48.112;11.662;2022-08-23T08:02:07;22.50;55.50
31379;DHT22;61664;48.112;11.662;2022-08-23T08:04:35;22.70;55.50
31379;DHT22;61664;48.112;11.662;2022-08-23T08:07:02;23.00;55.20
31379;DHT22;61664;48.112;11.662;2022-08-23T08:09:46;23.20;55.10
31379;DHT22;61664;48.112;11.662;2022-08-23T08:12:13;23.60;55.50
31379;DHT22;61664;48.112;11.662;2022-08-23T08:14:41;23.90;55.30
31379;DHT22;61664;48.112;11.662;2022-08-23T08:17:08;24.30;55.50
31379;DHT22;61664;48.112;11.662;2022-08-23T08:19:35;24.70;55.20
31379;DHT22;61664;48.112;11.662;2022-08-23T08:22:02;25.10;54.90
31379;DHT22;61664;48.112;11.662;2022-08-23T08:24:29;25.60;54.80
31379;DHT22;61664;48.112;11.662;2022-08-23T08:26:56;26.10;54.70
31379;DHT22;61664;48.112;11.662;2022-08-23T08:29:23;26.70;53.60
31379;DHT22;61664;48.112;11.662;2022-08-23T08:31:50;27.30;53.10
31379;DHT22;61664;48.112;11.662;2022-08-23T08:34:20;27.90;51.90
31379;DHT22;61664;48.112;11.662;2022-08-23T08:36:50;28.40;50.60
31379;DHT22;61664;48.112;11.662;2022-08-23T08:39:24;29.00;49.30
31379;DHT22;61664;48.112;11.662;2022-08-23T08:45:02;29.90;42.60
31379;DHT22;61664;48.112;11.662;2022-08-23T08:48:00;30.20;45.50
31379;DHT22;61664;48.112;11.662;2022-08-23T08:51:00;30.60;44.20
31379;DHT22;61664;48.112;11.662;2022-08-23T08:53:40;31.00;43.70
31379;DHT22;61664;48.112;11.662;2022-08-23T08:59:21;31.80;45.00
31379;DHT22;61664;48.112;11.662;2022-08-23T09:02:06;32.30;44.00
31379;DHT22;61664;48.112;11.662;2022-08-23T09:05:09;32.80;43.70
31379;DHT22;61664;48.112;11.662;2022-08-23T09:11:15;33.50;41.40
31379;DHT22;61664;48.112;11.662;2022-08-23T09:17:37;33.60;36.90
31379;DHT22;61664;48.112;11.662;2022-08-23T09:20:13;33.40;36.80
31379;DHT22;61664;48.112;11.662;2022-08-23T09:22:47;33.30;36.90
31379;DHT22;61664;48.112;11.662;2022-08-23T09:25:20;33.20;36.50
31379;DHT22;61664;48.112;11.662;2022-08-23T09:27:47;33.30;38.70
31379;DHT22;61664;48.112;11.662;2022-08-23T09:30:16;33.50;39.00
31379;DHT22;61664;48.112;11.662;2022-08-23T09:32:46;33.80;38.10
31379;DHT22;61664;48.112;11.662;2022-08-23T09:35:18;34.10;38.00
31379;DHT22;61664;48.112;11.662;2022-08-23T09:38:02;34.50;37.60
31379;DHT22;61664;48.112;11.662;2022-08-23T09:40:46;34.80;34.80
31379;DHT22;61664;48.112;11.662;2022-08-23T09:43:23;34.90;35.00
31379;DHT22;61664;48.112;11.662;2022-08-23T09:46:00;35.10;36.10
31379;DHT22;61664;48.112;11.662;2022-08-23T09:48:35;35.40;36.90
31379;DHT22;61664;48.112;11.662;2022-08-23T09:54:11;36.10;36.80
31379;DHT22;61664;48.112;11.662;2022-08-23T09:56:53;36.60;36.80
31379;DHT22;61664;48.112;11.662;2022-08-23T10:01:55;37.40;34.70
31379;DHT22;61664;48.112;11.662;2022-08-23T10:05:04;37.70;34.80
31379;DHT22;61664;48.112;11.662;2022-08-23T10:07:52;38.10;33.40
31379;DHT22;61664;48.112;11.662;2022-08-23T10:10:38;38.40;34.20
31379;DHT22;61664;48.112;11.662;2022-08-23T10:13:17;38.70;31.60
31379;DHT22;61664;48.112;11.662;2022-08-23T10:24:15;39.60;31.00
31379;DHT22;61664;48.112;11.662;2022-08-23T10:30:25;39.60;30.00
31379;DHT22;61664;48.112;11.662;2022-08-23T10:33:06;39.30;30.00
31379;DHT22;61664;48.112;11.662;2022-08-23T10:39:00;38.70;29.80
31379;DHT22;61664;48.112;11.662;2022-08-23T10:47:20;37.20;28.20
31379;DHT22;61664;48.112;11.662;2022-08-23T10:49:54;36.60;28.20
31379;DHT22;61664;48.112;11.662;2022-08-23T10:52:30;36.10;29.70
31379;DHT22;61664;48.112;11.662;2022-08-23T10:55:06;35.80;29.60
31379;DHT22;61664;48.112;11.662;2022-08-23T10:57:58;35.70;29.90
31379;DHT22;61664;48.112;11.662;2022-08-23T11:00:28;35.70;31.50
31379;DHT22;61664;48.112;11.662;2022-08-23T11:17:34;36.10;29.60
31379;DHT22;61664;48.112;11.662;2022-08-23T11:20:11;36.10;29.50
31379;DHT22;61664;48.112;11.662;2022-08-23T11:31:16;35.80;24.80
31379;DHT22;61664;48.112;11.662;2022-08-23T11:34:03;35.30;27.90
31379;DHT22;61664;48.112;11.662;2022-08-23T11:36:35;34.60;27.60
31379;DHT22;61664;48.112;11.662;2022-08-23T11:39:05;34.00;28.10
31379;DHT22;61664;48.112;11.662;2022-08-23T11:42:04;33.50;28.20
31379;DHT22;61664;48.112;11.662;2022-08-23T11:44:36;33.00;28.30
31379;DHT22;61664;48.112;11.662;2022-08-23T11:47:09;32.60;28.90
31379;DHT22;61664;48.112;11.662;2022-08-23T11:49:41;32.30;29.20
31379;DHT22;61664;48.112;11.662;2022-08-23T11:53:08;32.10;30.00
31379;DHT22;61664;48.112;11.662;2022-08-23T11:56:25;31.80;29.60
31379;DHT22;61664;48.112;11.662;2022-08-23T11:59:33;31.50;29.60
31379;DHT22;61664;48.112;11.662;2022-08-23T12:24:40;29.30;29.50
31379;DHT22;61664;48.112;11.662;2022-08-23T12:32:54;28.70;29.60
31379;DHT22;61664;48.112;11.662;2022-08-23T12:41:32;28.50;30.40
31379;DHT22;61664;48.112;11.662;2022-08-23T12:44:19;28.50;31.40
31379;DHT22;61664;48.112;11.662;2022-08-23T12:46:50;28.40;31.10
31379;DHT22;61664;48.112;11.662;2022-08-23T12:49:30;28.40;31.70
31379;DHT22;61664;48.112;11.662;2022-08-23T12:52:04;28.50;30.10
31379;DHT22;61664;48.112;11.662;2022-08-23T12:54:37;28.50;31.30
31379;DHT22;61664;48.112;11.662;2022-08-23T12:57:16;28.50;31.40
31379;DHT22;61664;48.112;11.662;2022-08-23T13:00:36;28.50;31.40
31379;DHT22;61664;48.112;11.662;2022-08-23T13:02:59;28.60;31.00
31379;DHT22;61664;48.112;11.662;2022-08-23T13:05:33;28.70;30.90
31379;DHT22;61664;48.112;11.662;2022-08-23T13:08:05;28.70;30.60
31379;DHT22;61664;48.112;11.662;2022-08-23T13:10:36;28.70;31.40
31379;DHT22;61664;48.112;11.662;2022-08-23T13:13:12;28.80;32.00
31379;DHT22;61664;48.112;11.662;2022-08-23T13:21:22;28.90;32.50
31379;DHT22;61664;48.112;11.662;2022-08-23T13:27:17;29.10;32.00
31379;DHT22;61664;48.112;11.662;2022-08-23T13:30:00;29.20;31.60
31379;DHT22;61664;48.112;11.662;2022-08-23T13:32:43;29.40;31.10
31379;DHT22;61664;48.112;11.662;2022-08-23T13:35:42;29.50;30.80
31379;DHT22;61664;48.112;11.662;2022-08-23T13:41:01;29.90;31.60
31379;DHT22;61664;48.112;11.662;2022-08-23T13:46:18;30.20;31.80
31379;DHT22;61664;48.112;11.662;2022-08-23T13:54:44;30.70;31.50
31379;DHT22;61664;48.112;11.662;2022-08-23T13:57:18;30.80;31.60
31379;DHT22;61664;48.112;11.662;2022-08-23T13:59:53;31.00;31.70
31379;DHT22;61664;48.112;11.662;2022-08-23T14:02:22;31.20;31.30
31379;DHT22;61664;48.112;11.662;2022-08-23T14:04:50;31.40;30.80
31379;DHT22;61664;48.112;11.662;2022-08-23T14:07:17;31.70;31.20
31379;DHT22;61664;48.112;11.662;2022-08-23T14:09:44;32.00;30.50
31379;DHT22;61664;48.112;11.662;2022-08-23T14:12:14;32.30;30.90
31379;DHT22;61664;48.112;11.662;2022-08-23T14:14:44;32.60;30.10
31379;DHT22;61664;48.112;11.662;2022-08-23T14:17:12;33.00;30.60
31379;DHT22;61664;48.112;11.662;2022-08-23T14:19:43;33.40;30.60
31379;DHT22;61664;48.112;11.662;2022-08-23T14:22:32;33.90;30.30
31379;DHT22;61664;48.112;11.662;2022-08-23T14:25:00;34.50;30.10
31379;DHT22;61664;48.112;11.662;2022-08-23T14:27:27;34.90;29.90
31379;DHT22;61664;48.112;11.662;2022-08-23T14:29:54;35.30;30.10
31379;DHT22;61664;48.112;11.662;2022-08-23T14:32:21;35.70;30.30
31379;DHT22;61664;48.112;11.662;2022-08-23T14:34:51;36.30;30.40
31379;DHT22;61664;48.112;11.662;2022-08-23T14:37:18;36.90;30.60
31379;DHT22;61664;48.112;11.662;2022-08-23T14:40:05;37.60;30.20
31379;DHT22;61664;48.112;11.662;2022-08-23T14:42:34;38.30;30.00
31379;DHT22;61664;48.112;11.662;2022-08-23T14:45:03;38.90;29.20
31379;DHT22;61664;48.112;11.662;2022-08-23T14:47:30;39.40;28.80
31379;DHT22;61664;48.112;11.662;2022-08-23T14:49:57;39.80;28.80
31379;DHT22;61664;48.112;11.662;2022-08-23T14:52:24;40.20;28.40
31379;DHT22;61664;48.112;11.662;2022-08-23T14:54:51;40.60;28.10
31379;DHT22;61664;48.112;11.662;2022-08-23T14:57:18;40.90;28.00
31379;DHT22;61664;48.112;11.662;2022-08-23T14:59:45;41.20;27.80
31379;DHT22;61664;48.112;11.662;2022-08-23T15:02:17;41.50;27.20
31379;DHT22;61664;48.112;11.662;2022-08-23T15:04:47;41.70;25.90
31379;DHT22;61664;48.112;11.662;2022-08-23T15:07:14;41.70;26.60
31379;DHT22;61664;48.112;11.662;2022-08-23T15:09:49;41.80;26.50
31379;DHT22;61664;48.112;11.662;2022-08-23T15:12:18;41.90;25.10
31379;DHT22;61664;48.112;11.662;2022-08-23T15:15:09;41.90;26.20
31379;DHT22;61664;48.112;11.662;2022-08-23T15:17:49;41.90;25.90
31379;DHT22;61664;48.112;11.662;2022-08-23T15:20:31;42.00;25.00
31379;DHT22;61664;48.112;11.662;2022-08-23T15:23:02;42.10;25.10
31379;DHT22;61664;48.112;11.662;2022-08-23T15:25:36;42.10;25.50
31379;DHT22;61664;48.112;11.662;2022-08-23T15:28:10;41.90;25.80
31379;DHT22;61664;48.112;11.662;2022-08-23T15:30:40;41.90;25.00
31379;DHT22;61664;48.112;11.662;2022-08-23T15:33:07;41.80;25.60
31379;DHT22;61664;48.112;11.662;2022-08-23T15:35:42;41.90;25.70
31379;DHT22;61664;48.112;11.662;2022-08-23T15:38:23;41.80;25.60
31379;DHT22;61664;48.112;11.662;2022-08-23T15:40:52;41.90;25.80
31379;DHT22;61664;48.112;11.662;2022-08-23T15:43:20;41.90;25.60
31379;DHT22;61664;48.112;11.662;2022-08-23T15:46:01;42.00;25.60
31379;DHT22;61664;48.112;11.662;2022-08-23T15:48:34;42.20;26.80
31379;DHT22;61664;48.112;11.662;2022-08-23T15:51:04;42.30;25.20
31379;DHT22;61664;48.112;11.662;2022-08-23T15:53:32;42.30;25.10
31379;DHT22;61664;48.112;11.662;2022-08-23T15:55:59;42.20;25.10
31379;DHT22;61664;48.112;11.662;2022-08-23T15:58:31;42.20;25.20
31379;DHT22;61664;48.112;11.662;2022-08-23T16:00:58;42.10;25.20
31379;DHT22;61664;48.112;11.662;2022-08-23T16:03:25;42.00;25.10
31379;DHT22;61664;48.112;11.662;2022-08-23T16:05:53;42.00;24.90
31379;DHT22;61664;48.112;11.662;2022-08-23T16:08:27;41.90;24.90
31379;DHT22;61664;48.112;11.662;2022-08-23T16:10:56;41.90;24.10
31379;DHT22;61664;48.112;11.662;2022-08-23T16:13:25;41.90;24.80
31379;DHT22;61664;48.112;11.662;2022-08-23T16:15:52;41.80;24.80
31379;DHT22;61664;48.112;11.662;2022-08-23T16:18:19;41.80;24.70
31379;DHT22;61664;48.112;11.662;2022-08-23T16:20:46;41.70;24.60
31379;DHT22;61664;48.112;11.662;2022-08-23T16:23:13;41.70;24.50
31379;DHT22;61664;48.112;11.662;2022-08-23T16:25:41;41.70;24.40
31379;DHT22;61664;48.112;11.662;2022-08-23T16:28:08;41.60;24.30
31379;DHT22;61664;48.112;11.662;2022-08-23T16:30:36;41.50;24.20
31379;DHT22;61664;48.112;11.662;2022-08-23T16:33:03;41.30;24.10
31379;DHT22;61664;48.112;11.662;2022-08-23T16:35:30;41.20;24.10
31379;DHT22;61664;48.112;11.662;2022-08-23T16:37:57;41.10;24.10
31379;DHT22;61664;48.112;11.662;2022-08-23T16:40:24;41.00;24.10
31379;DHT22;61664;48.112;11.662;2022-08-23T16:42:51;40.80;24.10
31379;DHT22;61664;48.112;11.662;2022-08-23T16:45:18;40.70;24.10
31379;DHT22;61664;48.112;11.662;2022-08-23T16:47:51;40.50;24.00
31379;DHT22;61664;48.112;11.662;2022-08-23T16:50:18;40.20;23.90
31379;DHT22;61664;48.112;11.662;2022-08-23T16:52:45;40.00;23.90
31379;DHT22;61664;48.112;11.662;2022-08-23T16:55:12;39.80;23.90
31379;DHT22;61664;48.112;11.662;2022-08-23T16:57:40;39.60;23.90
31379;DHT22;61664;48.112;11.662;2022-08-23T17:00:09;39.30;23.80
31379;DHT22;61664;48.112;11.662;2022-08-23T17:02:39;39.00;23.70
31379;DHT22;61664;48.112;11.662;2022-08-23T17:05:09;38.60;23.60
31379;DHT22;61664;48.112;11.662;2022-08-23T17:07:39;38.20;23.50
31379;DHT22;61664;48.112;11.662;2022-08-23T17:10:08;37.80;23.70
31379;DHT22;61664;48.112;11.662;2022-08-23T17:12:37;37.30;23.70
31379;DHT22;61664;48.112;11.662;2022-08-23T17:15:14;36.90;24.10
31379;DHT22;61664;48.112;11.662;2022-08-23T17:17:46;36.30;24.00
31379;DHT22;61664;48.112;11.662;2022-08-23T17:20:15;35.70;24.10
31379;DHT22;61664;48.112;11.662;2022-08-23T17:22:45;35.20;24.30
31379;DHT22;61664;48.112;11.662;2022-08-23T17:25:13;34.70;24.40
31379;DHT22;61664;48.112;11.662;2022-08-23T17:27:41;34.20;24.60
31379;DHT22;61664;48.112;11.662;2022-08-23T17:30:14;33.70;24.80
31379;DHT22;61664;48.112;11.662;2022-08-23T17:32:44;33.20;24.90
31379;DHT22;61664;48.112;11.662;2022-08-23T17:35:17;32.80;25.10
31379;DHT22;61664;48.112;11.662;2022-08-23T17:37:46;32.40;25.40
31379;DHT22;61664;48.112;11.662;2022-08-23T17:40:17;32.10;25.50
31379;DHT22;61664;48.112;11.662;2022-08-23T17:42:47;31.70;25.60
31379;DHT22;61664;48.112;11.662;2022-08-23T17:45:16;31.40;25.90
31379;DHT22;61664;48.112;11.662;2022-08-23T17:47:44;31.10;26.10
31379;DHT22;61664;48.112;11.662;2022-08-23T17:50:11;30.80;26.80